createdAt,value
2019-03-12T00:00:14.024Z,1.85
2019-03-12T00:02:42.418Z,1.85
2019-03-12T00:05:10.816Z,1.86
2019-03-12T00:07:39.213Z,1.85
2019-03-12T00:10:08.843Z,1.85
2019-03-12T00:12:37.261Z,1.45
2019-03-12T00:15:06.917Z,1.87
2019-03-12T00:17:35.295Z,1.89
2019-03-12T00:20:05.020Z,1.89
2019-03-12T00:22:33.409Z,1.90
2019-03-12T00:25:01.797Z,1.89
2019-03-12T00:27:30.181Z,1.90
2019-03-12T00:29:58.575Z,1.90
2019-03-12T00:32:26.964Z,1.91
2019-03-12T00:34:55.357Z,1.93
2019-03-12T00:37:23.746Z,1.95
2019-03-12T00:39:52.174Z,1.95
2019-03-12T00:42:20.566Z,1.95
2019-03-12T00:44:48.971Z,1.95
2019-03-12T00:47:17.372Z,1.95
2019-03-12T00:49:45.796Z,1.95
2019-03-12T00:52:14.183Z,1.95
2019-03-12T00:54:42.567Z,1.94
2019-03-12T00:57:10.952Z,1.93
2019-03-12T00:59:39.341Z,1.92
2019-03-12T01:02:07.725Z,1.88
2019-03-12T01:04:36.116Z,1.85
2019-03-12T01:07:04.501Z,1.81
2019-03-12T01:09:32.899Z,1.77
2019-03-12T01:12:01.292Z,1.74
2019-03-12T01:14:29.688Z,1.74
2019-03-12T01:16:58.141Z,1.72
2019-03-12T01:19:26.532Z,1.73
2019-03-12T01:21:54.931Z,1.73
2019-03-12T01:24:23.311Z,1.74
2019-03-12T01:26:51.712Z,1.78
2019-03-12T01:29:20.102Z,1.79
2019-03-12T01:31:48.484Z,1.80
2019-03-12T01:34:16.901Z,1.82
2019-03-12T01:36:45.292Z,1.74
2019-03-12T01:39:13.877Z,1.84
2019-03-12T01:41:42.267Z,1.87
2019-03-12T01:44:10.655Z,1.90
2019-03-12T01:46:39.188Z,1.94
2019-03-12T01:49:07.507Z,1.95
2019-03-12T01:51:35.896Z,1.98
2019-03-12T01:54:04.346Z,2.00
2019-03-12T01:56:32.832Z,2.02
2019-03-12T01:59:01.194Z,2.04
2019-03-12T02:01:29.583Z,2.07
2019-03-12T02:03:58.039Z,2.10
2019-03-12T02:06:26.430Z,2.12
2019-03-12T02:08:54.820Z,2.14
2019-03-12T02:11:23.226Z,2.16
2019-03-12T02:13:51.619Z,2.16
2019-03-12T02:16:20.006Z,2.17
2019-03-12T02:18:48.389Z,2.21
2019-03-12T02:21:16.846Z,2.24
2019-03-12T02:23:45.234Z,2.26
2019-03-12T02:26:13.697Z,2.27
2019-03-12T02:28:42.148Z,2.30
2019-03-12T02:31:10.527Z,2.31
2019-03-12T02:33:38.919Z,2.31
2019-03-12T02:36:07.297Z,2.30
2019-03-12T02:38:35.686Z,2.33
2019-03-12T02:41:04.201Z,2.33
2019-03-12T02:43:32.589Z,2.33
2019-03-12T02:46:00.975Z,2.33
2019-03-12T02:48:29.362Z,2.33
2019-03-12T02:50:57.792Z,2.32
2019-03-12T02:53:26.168Z,1.87
2019-03-12T02:55:54.982Z,2.32
2019-03-12T02:58:23.424Z,2.31
2019-03-12T03:00:51.819Z,2.31
2019-03-12T03:03:20.235Z,2.33
2019-03-12T03:05:52.694Z,2.33
2019-03-12T03:08:22.727Z,2.31
2019-03-12T03:10:51.186Z,2.29
2019-03-12T03:13:19.596Z,2.24
2019-03-12T03:15:48.051Z,2.22
2019-03-12T03:18:16.433Z,2.20
2019-03-12T03:20:44.831Z,2.18
2019-03-12T03:23:13.256Z,2.18
2019-03-12T03:25:41.684Z,2.18
2019-03-12T03:28:10.098Z,2.18
2019-03-12T03:30:38.702Z,2.17
2019-03-12T03:33:07.114Z,2.18
2019-03-12T03:35:35.575Z,2.19
2019-03-12T03:38:04.058Z,2.21
2019-03-12T03:40:32.451Z,2.21
2019-03-12T03:43:00.839Z,2.23
2019-03-12T03:45:29.210Z,2.24
2019-03-12T03:47:57.716Z,2.24
2019-03-12T03:50:26.149Z,2.24
2019-03-12T03:52:54.535Z,2.25
2019-03-12T03:55:23.400Z,2.25
2019-03-12T03:57:51.841Z,2.24
2019-03-12T04:00:22.345Z,2.25
2019-03-12T04:02:50.763Z,2.26
2019-03-12T04:05:19.311Z,2.26
2019-03-12T04:07:47.807Z,2.27
2019-03-12T04:10:16.793Z,2.27
2019-03-12T04:12:45.636Z,2.28
2019-03-12T04:15:15.883Z,2.30
2019-03-12T04:17:44.291Z,2.30
2019-03-12T04:20:15.044Z,2.30
2019-03-12T04:22:43.438Z,2.31
2019-03-12T04:25:12.086Z,2.30
2019-03-12T04:27:40.570Z,2.30
2019-03-12T04:30:17.881Z,2.28
2019-03-12T04:32:46.270Z,2.27
2019-03-12T04:35:23.499Z,2.25
2019-03-12T04:37:51.945Z,2.23
2019-03-12T04:40:20.342Z,2.21
2019-03-12T04:42:48.728Z,2.19
2019-03-12T04:45:17.616Z,2.18
2019-03-12T04:47:46.106Z,2.16
2019-03-12T04:50:15.056Z,2.16
2019-03-12T04:52:43.448Z,2.15
2019-03-12T04:55:15.703Z,2.15
2019-03-12T04:57:44.251Z,2.14
2019-03-12T05:00:20.382Z,2.14
2019-03-12T05:02:48.793Z,2.14
2019-03-12T05:05:17.172Z,2.13
2019-03-12T05:07:45.556Z,2.12
2019-03-12T05:10:17.109Z,2.13
2019-03-12T05:12:46.128Z,2.12
2019-03-12T05:15:18.580Z,2.13
2019-03-12T05:17:47.038Z,2.12
2019-03-12T05:20:15.962Z,2.13
2019-03-12T05:22:44.359Z,2.10
2019-03-12T05:25:14.025Z,2.10
2019-03-12T05:27:42.586Z,2.10
2019-03-12T05:30:19.196Z,2.08
2019-03-12T05:32:47.671Z,2.08
2019-03-12T05:35:16.064Z,2.08
2019-03-12T05:37:44.541Z,2.09
2019-03-12T05:40:16.167Z,2.09
2019-03-12T05:42:44.589Z,2.11
2019-03-12T05:45:18.989Z,2.11
2019-03-12T05:47:47.377Z,2.13
2019-03-12T05:50:20.482Z,2.13
2019-03-12T05:52:49.639Z,2.13
2019-03-12T05:55:18.214Z,2.14
2019-03-12T05:57:46.705Z,2.15
2019-03-12T06:00:21.436Z,2.15
2019-03-12T06:02:49.927Z,2.17
2019-03-12T06:05:18.475Z,2.17
2019-03-12T06:07:46.872Z,2.17
2019-03-12T06:10:15.920Z,2.18
2019-03-12T06:12:44.431Z,2.20
2019-03-12T06:15:14.891Z,2.21
2019-03-12T06:17:43.279Z,2.22
2019-03-12T06:20:13.874Z,2.24
2019-03-12T06:22:42.397Z,2.25
2019-03-12T06:25:11.228Z,2.25
2019-03-12T06:27:39.621Z,2.25
2019-03-12T06:30:11.057Z,2.25
2019-03-12T06:32:43.758Z,2.27
2019-03-12T06:35:13.520Z,2.28
2019-03-12T06:37:49.055Z,2.29
2019-03-12T06:40:28.043Z,2.31
2019-03-12T06:43:14.465Z,2.32
2019-03-12T06:45:44.491Z,2.35
2019-03-12T06:48:14.517Z,2.39
2019-03-12T06:50:44.543Z,2.40
2019-03-12T06:53:16.986Z,2.41
2019-03-12T06:55:49.971Z,2.42
2019-03-12T06:58:26.015Z,2.45
2019-03-12T07:00:56.052Z,2.49
2019-03-12T07:03:26.071Z,2.51
2019-03-12T07:05:56.106Z,2.55
2019-03-12T07:08:28.999Z,2.58
2019-03-12T07:11:11.031Z,2.62
2019-03-12T07:13:41.078Z,2.67
2019-03-12T07:16:11.107Z,2.72
2019-03-12T07:18:49.585Z,2.76
2019-03-12T07:21:19.617Z,2.80
2019-03-12T07:23:58.646Z,2.82
2019-03-12T07:26:31.959Z,2.85
2019-03-12T07:29:04.953Z,2.86
2019-03-12T07:31:37.580Z,2.86
2019-03-12T07:34:10.033Z,2.88
2019-03-12T07:36:48.763Z,2.91
2019-03-12T07:39:24.509Z,2.96
2019-03-12T07:41:54.528Z,2.97
2019-03-12T07:44:40.768Z,3.00
2019-03-12T07:47:10.774Z,2.98
2019-03-12T07:49:40.799Z,3.00
2019-03-12T07:52:28.712Z,3.03
2019-03-12T07:55:10.982Z,3.06
2019-03-12T07:57:50.108Z,3.08
2019-03-12T08:00:20.132Z,3.13
2019-03-12T08:02:59.321Z,3.18
2019-03-12T08:05:29.378Z,3.21
2019-03-12T08:08:01.855Z,3.26
2019-03-12T08:10:34.609Z,3.29
2019-03-12T08:13:04.623Z,3.32
2019-03-12T08:15:52.869Z,3.36
2019-03-12T08:18:31.832Z,3.39
2019-03-12T08:21:22.672Z,3.43
2019-03-12T08:23:54.397Z,3.45
2019-03-12T08:26:24.441Z,3.50
2019-03-12T08:29:00.157Z,3.54
2019-03-12T08:31:39.023Z,3.61
2019-03-12T08:34:14.566Z,3.66
2019-03-12T08:36:50.455Z,3.73
2019-03-12T08:39:26.267Z,3.83
2019-03-12T08:41:59.123Z,3.92
2019-03-12T08:44:37.546Z,3.96
2019-03-12T08:47:06.998Z,4.02
2019-03-12T08:49:43.005Z,4.04
2019-03-12T08:52:21.623Z,4.10
2019-03-12T08:55:09.797Z,4.24
2019-03-12T08:57:51.835Z,4.38
2019-03-12T09:00:24.145Z,4.47
2019-03-12T09:02:59.390Z,4.50
2019-03-12T09:05:32.101Z,4.46
2019-03-12T09:08:02.149Z,4.37
2019-03-12T09:10:32.182Z,4.32
2019-03-12T09:13:02.202Z,4.30
2019-03-12T09:15:32.222Z,4.25
2019-03-12T09:18:02.239Z,4.24
2019-03-12T09:20:32.264Z,4.25
2019-03-12T09:23:02.313Z,4.32
2019-03-12T09:25:47.424Z,4.44
2019-03-12T09:28:20.048Z,4.62
2019-03-12T09:30:52.831Z,4.72
2019-03-12T09:33:37.926Z,4.76
2019-03-12T09:36:24.378Z,4.77
2019-03-12T09:38:54.408Z,4.77
2019-03-12T09:41:24.453Z,4.82
2019-03-12T09:46:49.133Z,4.74
2019-03-12T09:49:19.265Z,4.71
2019-03-12T09:51:58.302Z,4.73
2019-03-12T09:54:31.025Z,4.79
2019-03-12T09:57:01.057Z,4.82
2019-03-12T09:59:37.287Z,4.89
2019-03-12T10:02:19.641Z,4.95
2019-03-12T10:04:52.319Z,5.02
2019-03-12T10:07:22.341Z,5.13
2019-03-12T10:10:04.337Z,5.15
2019-03-12T10:12:36.960Z,5.14
2019-03-12T10:15:14.517Z,5.14
2019-03-12T10:17:53.520Z,5.13
2019-03-12T10:20:35.634Z,5.16
2019-03-12T10:23:05.658Z,5.16
2019-03-12T10:25:51.935Z,5.16
2019-03-12T10:28:24.639Z,5.18
2019-03-12T10:30:57.647Z,5.21
2019-03-12T10:33:33.478Z,5.21
2019-03-12T10:36:06.546Z,5.22
2019-03-12T10:38:59.283Z,5.21
2019-03-12T10:41:29.310Z,5.23
2019-03-12T10:43:59.351Z,5.23
2019-03-12T10:46:29.371Z,5.26
2019-03-12T10:48:57.830Z,5.30
2019-03-12T10:51:26.314Z,5.32
2019-03-12T10:53:54.704Z,5.40
2019-03-12T10:56:23.141Z,5.41
2019-03-12T10:58:51.546Z,5.45
2019-03-12T11:01:19.944Z,5.52
2019-03-12T11:03:48.435Z,5.62
2019-03-12T11:06:16.894Z,5.67
2019-03-12T11:08:45.278Z,5.69
2019-03-12T11:11:13.655Z,5.72
2019-03-12T11:13:42.155Z,5.75
2019-03-12T11:16:10.818Z,5.72
2019-03-12T11:18:39.226Z,5.75
2019-03-12T11:21:07.608Z,5.73
2019-03-12T11:23:35.989Z,5.65
2019-03-12T11:26:04.455Z,5.61
2019-03-12T11:28:33.052Z,5.63
2019-03-12T11:31:01.435Z,5.65
2019-03-12T11:33:29.821Z,5.63
2019-03-12T11:35:58.269Z,5.62
2019-03-12T11:38:26.644Z,5.59
2019-03-12T11:40:55.499Z,5.61
2019-03-12T11:43:23.867Z,5.62
2019-03-12T11:45:52.330Z,5.71
2019-03-12T11:48:20.744Z,5.82
2019-03-12T11:50:49.241Z,5.94
2019-03-12T11:53:17.667Z,6.11
2019-03-12T11:55:46.238Z,6.29
2019-03-12T11:58:14.755Z,6.41
2019-03-12T12:00:44.893Z,6.42
2019-03-12T12:03:13.531Z,6.40
2019-03-12T12:05:42.025Z,6.35
2019-03-12T12:08:10.420Z,6.34
2019-03-12T12:10:38.840Z,6.32
2019-03-12T12:13:07.338Z,6.31
2019-03-12T12:15:35.866Z,6.27
2019-03-12T12:18:05.785Z,6.24
2019-03-12T12:20:34.168Z,6.19
2019-03-12T12:23:02.556Z,6.15
2019-03-12T12:25:31.054Z,6.21
2019-03-12T12:27:59.466Z,6.25
2019-03-12T12:30:27.927Z,6.29
2019-03-12T12:32:56.388Z,6.37
2019-03-12T12:35:24.773Z,6.43
2019-03-12T12:37:53.154Z,6.51
2019-03-12T12:40:22.586Z,6.62
2019-03-12T12:42:51.047Z,6.79
2019-03-12T12:45:28.142Z,6.91
2019-03-12T12:47:56.526Z,7.01
2019-03-12T12:50:25.088Z,7.02
2019-03-12T12:52:53.471Z,7.02
2019-03-12T12:55:21.936Z,7.09
2019-03-12T12:57:50.318Z,7.14
2019-03-12T13:00:20.762Z,7.15
2019-03-12T13:02:49.446Z,7.07
2019-03-12T13:05:18.337Z,7.02
2019-03-12T13:07:46.855Z,6.98
2019-03-12T13:10:26.657Z,6.93
2019-03-12T13:12:55.124Z,6.91
2019-03-12T13:15:23.588Z,6.94
2019-03-12T13:17:52.203Z,7.03
2019-03-12T13:20:20.765Z,7.07
2019-03-12T13:22:49.160Z,7.12
2019-03-12T13:25:18.950Z,7.08
2019-03-12T13:27:47.383Z,7.14
2019-03-12T13:30:23.162Z,7.11
2019-03-12T13:32:51.644Z,7.10
2019-03-12T13:35:20.498Z,7.10
2019-03-12T13:37:49.476Z,7.11
2019-03-12T13:40:25.380Z,7.10
2019-03-12T13:42:53.921Z,7.14
2019-03-12T13:45:32.359Z,7.15
2019-03-12T13:48:00.867Z,7.20
2019-03-12T13:50:29.320Z,7.19
2019-03-12T13:52:57.976Z,7.16
2019-03-12T13:55:26.612Z,7.19
2019-03-12T13:57:55.489Z,7.28
2019-03-12T14:00:25.109Z,7.33
2019-03-12T14:02:53.859Z,7.36
2019-03-12T14:05:22.403Z,7.47
2019-03-12T14:07:50.794Z,7.51
2019-03-12T14:10:28.438Z,7.57
2019-03-12T14:12:57.595Z,7.55
2019-03-12T14:15:34.094Z,7.53
2019-03-12T14:18:02.629Z,7.50
2019-03-12T14:20:43.125Z,7.48
2019-03-12T14:23:16.958Z,7.46
2019-03-12T14:25:45.499Z,7.42
2019-03-12T14:28:13.880Z,7.40
2019-03-12T14:30:42.831Z,7.37
2019-03-12T14:33:11.344Z,7.34
2019-03-12T14:35:50.873Z,7.43
2019-03-12T14:38:10.495Z,7.54
2019-03-12T14:40:38.860Z,7.60
2019-03-12T14:43:07.405Z,7.62
2019-03-12T14:45:39.041Z,7.64
2019-03-12T14:48:09.834Z,7.65
2019-03-12T14:50:38.200Z,7.65
2019-03-12T14:53:21.375Z,7.66
2019-03-12T14:55:42.253Z,7.66
2019-03-12T14:58:10.651Z,7.64
2019-03-12T15:00:39.032Z,7.58
2019-03-12T15:03:07.414Z,7.52
2019-03-12T15:05:35.821Z,7.49
2019-03-12T15:08:05.714Z,7.47
2019-03-12T15:10:34.084Z,7.52
2019-03-12T15:13:02.550Z,7.46
2019-03-12T15:15:30.972Z,7.59
2019-03-12T15:17:59.350Z,7.61
2019-03-12T15:20:27.721Z,7.61
2019-03-12T15:22:56.106Z,7.61
2019-03-12T15:25:24.501Z,7.60
2019-03-12T15:27:52.886Z,7.55
2019-03-12T15:30:23.409Z,7.45
2019-03-12T15:32:51.835Z,7.38
2019-03-12T15:35:20.245Z,7.36
2019-03-12T15:37:48.622Z,7.34
2019-03-12T15:40:17.086Z,7.36
2019-03-12T15:42:45.730Z,7.35
2019-03-12T15:45:17.109Z,7.39
2019-03-12T15:47:45.529Z,7.38
2019-03-12T15:50:15.162Z,7.36
2019-03-12T15:52:43.545Z,7.36
2019-03-12T15:55:12.066Z,7.33
2019-03-12T15:57:40.446Z,7.30
2019-03-12T16:00:16.501Z,7.27
2019-03-12T16:02:44.916Z,7.24
2019-03-12T16:05:13.439Z,7.23
2019-03-12T16:07:41.820Z,7.23
2019-03-12T16:10:12.716Z,7.21
2019-03-12T16:12:41.162Z,7.21
2019-03-12T16:15:11.352Z,7.18
2019-03-12T16:17:39.738Z,7.14
2019-03-12T16:20:13.332Z,7.12
2019-03-12T16:22:41.782Z,7.10
2019-03-12T16:25:11.008Z,7.07
2019-03-12T16:27:39.496Z,7.04
2019-03-12T16:30:13.178Z,7.01
2019-03-12T16:32:41.653Z,6.97
2019-03-12T16:35:10.756Z,6.93
2019-03-12T16:37:39.155Z,6.90
2019-03-12T16:40:18.519Z,6.85
2019-03-12T16:42:46.968Z,6.81
2019-03-12T16:45:16.993Z,6.77
2019-03-12T16:47:45.421Z,6.74
2019-03-12T16:50:18.409Z,6.70
2019-03-12T16:52:46.811Z,6.65
2019-03-12T16:55:18.760Z,6.61
2019-03-12T16:57:47.145Z,6.58
2019-03-12T17:00:20.391Z,6.53
2019-03-12T17:02:48.806Z,6.50
2019-03-12T17:05:17.273Z,6.46
2019-03-12T17:07:45.657Z,6.43
2019-03-12T17:10:19.213Z,6.39
2019-03-12T17:12:47.687Z,6.23
2019-03-12T17:15:21.025Z,6.34
2019-03-12T17:17:49.480Z,6.31
2019-03-12T17:20:18.527Z,6.29
2019-03-12T17:22:46.984Z,6.27
2019-03-12T17:25:15.440Z,6.25
2019-03-12T17:27:43.828Z,6.23
2019-03-12T17:30:19.862Z,6.23
2019-03-12T17:32:48.315Z,6.20
2019-03-12T17:35:22.423Z,6.17
2019-03-12T17:37:50.876Z,6.17
2019-03-12T17:40:21.006Z,6.12
2019-03-12T17:42:49.534Z,6.10
2019-03-12T17:45:17.970Z,6.07
2019-03-12T17:47:46.463Z,6.04
2019-03-12T17:50:14.969Z,6.02
2019-03-12T17:52:43.358Z,5.97
2019-03-12T17:55:13.684Z,5.94
2019-03-12T17:57:42.240Z,5.93
2019-03-12T18:00:30.567Z,5.91
2019-03-12T18:02:58.964Z,5.89
2019-03-12T18:05:27.515Z,5.86
2019-03-12T18:07:55.906Z,5.85
2019-03-12T18:10:24.364Z,5.83
2019-03-12T18:12:52.760Z,5.83
2019-03-12T18:15:24.095Z,5.81
2019-03-12T18:17:52.545Z,5.80
2019-03-12T18:20:22.079Z,5.77
2019-03-12T18:22:50.545Z,5.74
2019-03-12T18:25:24.723Z,5.70
2019-03-12T18:27:53.108Z,5.66
2019-03-12T18:30:21.565Z,5.61
2019-03-12T18:32:49.953Z,5.56
2019-03-12T18:35:18.376Z,5.53
2019-03-12T18:37:46.928Z,5.48
2019-03-12T18:40:22.831Z,5.42
2019-03-12T18:42:51.353Z,5.38
2019-03-12T18:45:30.629Z,5.32
2019-03-12T18:47:59.051Z,5.30
2019-03-12T18:50:27.500Z,5.23
2019-03-12T18:52:56.048Z,5.19
2019-03-12T18:55:33.866Z,5.16
2019-03-12T18:58:03.012Z,5.11
2019-03-12T19:00:32.165Z,5.07
2019-03-12T19:03:00.715Z,5.06
2019-03-12T19:05:29.199Z,5.05
2019-03-12T19:07:57.589Z,5.03
2019-03-12T19:10:26.005Z,5.02
2019-03-12T19:12:54.464Z,5.01
2019-03-12T19:15:22.934Z,5.00
2019-03-12T19:17:51.419Z,4.99
2019-03-12T19:20:20.466Z,4.99
2019-03-12T19:22:48.867Z,4.97
2019-03-12T19:25:19.963Z,4.96
2019-03-12T19:27:59.209Z,4.95
2019-03-12T19:30:19.544Z,4.93
2019-03-12T19:32:49.719Z,4.90
2019-03-12T19:35:21.145Z,4.87
2019-03-12T19:37:49.562Z,4.85
2019-03-12T19:40:20.866Z,4.82
2019-03-12T19:42:49.393Z,4.80
2019-03-12T19:45:17.775Z,4.78
2019-03-12T19:47:46.188Z,4.76
2019-03-12T19:50:20.017Z,4.74
2019-03-12T19:52:48.425Z,4.71
2019-03-12T19:55:22.934Z,4.67
2019-03-12T19:57:51.782Z,4.62
2019-03-12T20:00:22.183Z,4.57
2019-03-12T20:02:52.360Z,4.52
2019-03-12T20:05:20.810Z,4.50
2019-03-12T20:07:49.201Z,4.46
2019-03-12T20:10:37.321Z,4.45
2019-03-12T20:13:11.682Z,4.42
2019-03-12T20:15:45.924Z,4.39
2019-03-12T20:18:22.943Z,4.36
2019-03-12T20:21:00.211Z,4.33
2019-03-12T20:23:52.760Z,4.28
2019-03-12T20:26:43.907Z,4.24
2019-03-12T20:29:46.420Z,4.20
2019-03-12T20:32:36.846Z,4.16
2019-03-12T20:35:24.583Z,4.13
2019-03-12T20:38:22.496Z,4.11
2019-03-12T20:41:09.101Z,4.07
2019-03-12T20:44:13.734Z,4.03
2019-03-12T20:47:07.837Z,3.98
2019-03-12T20:49:51.078Z,3.93
2019-03-12T20:52:45.004Z,3.90
2019-03-12T20:55:42.023Z,3.86
2019-03-12T20:58:36.206Z,3.81
2019-03-12T21:01:42.778Z,3.78
2019-03-12T21:04:36.967Z,3.74
2019-03-12T21:07:29.573Z,3.72
2019-03-12T21:10:18.390Z,3.67
2019-03-12T21:13:16.898Z,3.62
2019-03-12T21:16:10.824Z,3.58
2019-03-12T21:19:11.233Z,3.54
2019-03-12T21:22:03.249Z,3.51
2019-03-12T21:24:27.628Z,3.48
2019-03-12T21:27:22.060Z,3.44
2019-03-12T21:29:49.855Z,3.42
2019-03-12T21:32:19.100Z,3.40
2019-03-12T21:34:48.026Z,3.37
2019-03-12T21:37:16.651Z,3.35
2019-03-12T21:39:54.588Z,3.30
2019-03-12T21:42:15.203Z,3.29
2019-03-12T21:44:43.692Z,3.28
2019-03-12T21:47:12.217Z,3.26
2019-03-12T21:49:40.600Z,3.27
2019-03-12T21:52:09.063Z,3.27
2019-03-12T21:54:37.472Z,3.24
2019-03-12T21:57:05.948Z,3.24
2019-03-12T21:59:34.322Z,3.20
2019-03-12T22:02:02.734Z,3.19
2019-03-12T22:04:31.091Z,3.17
2019-03-12T22:06:59.510Z,3.18
2019-03-12T22:09:27.887Z,3.18
2019-03-12T22:11:56.297Z,3.19
2019-03-12T22:14:24.706Z,3.19
2019-03-12T22:16:53.554Z,3.19
2019-03-12T22:19:21.933Z,3.21
2019-03-12T22:21:54.407Z,3.24
2019-03-12T22:24:22.775Z,3.25
2019-03-12T22:26:51.187Z,3.26
2019-03-12T22:29:19.561Z,3.25
2019-03-12T22:31:47.944Z,3.25
2019-03-12T22:34:16.335Z,3.26
2019-03-12T22:36:44.750Z,3.26
2019-03-12T22:39:13.143Z,3.26
2019-03-12T22:41:41.549Z,3.27
2019-03-12T22:44:09.959Z,3.14
2019-03-12T22:46:38.339Z,3.28
2019-03-12T22:49:06.735Z,3.27
2019-03-12T22:51:35.116Z,3.28
2019-03-12T22:54:03.500Z,3.25
2019-03-12T22:56:31.881Z,3.26
2019-03-12T22:59:00.290Z,3.24
2019-03-12T23:01:28.666Z,3.22
2019-03-12T23:03:57.055Z,3.21
2019-03-12T23:06:28.579Z,3.22
2019-03-12T23:08:57.078Z,3.24
2019-03-12T23:11:25.480Z,3.25
2019-03-12T23:13:53.862Z,3.26
2019-03-12T23:16:22.251Z,3.25
2019-03-12T23:18:50.666Z,3.27
2019-03-12T23:21:19.075Z,3.28
2019-03-12T23:23:49.017Z,3.28
2019-03-12T23:26:17.485Z,3.29
2019-03-12T23:28:45.972Z,3.28
2019-03-12T23:31:14.355Z,3.27
2019-03-12T23:33:42.856Z,3.26
2019-03-12T23:36:11.871Z,3.28
2019-03-12T23:38:40.222Z,3.26
2019-03-12T23:41:08.608Z,3.24
2019-03-12T23:43:37.069Z,3.26
2019-03-12T23:46:05.591Z,3.26
2019-03-12T23:48:34.073Z,3.28
2019-03-12T23:51:02.451Z,3.29
2019-03-12T23:53:30.853Z,3.28
2019-03-12T23:55:59.286Z,3.28
2019-03-12T23:58:30.352Z,3.29
